sensor_id;sensor_type;location;lat;lon;timestamp;P1;durP1;ratioP1;P2;durP2;ratioP2
14019;SDS011;7085;51.428;6.796;2023-06-22T03:01:23;9.60;;;5.65;;
14019;SDS011;7085;51.428;6.796;2023-06-22T03:03:52;9.38;;;5.45;;
14019;SDS011;7085;51.428;6.796;2023-06-22T03:06:19;7.88;;;5.32;;
14019;SDS011;7085;51.428;6.796;2023-06-22T03:08:48;6.32;;;5.20;;
14019;SDS011;7085;51.428;6.796;2023-06-22T03:11:15;5.78;;;5.00;;
14019;SDS011;7085;51.428;6.796;2023-06-22T03:13:42;6.60;;;5.63;;
14019;SDS011;7085;51.428;6.796;2023-06-22T03:16:11;8.95;;;6.35;;
14019;SDS011;7085;51.428;6.796;2023-06-22T03:18:39;5.72;;;5.22;;
14019;SDS011;7085;51.428;6.796;2023-06-22T03:21:06;6.60;;;5.90;;
14019;SDS011;7085;51.428;6.796;2023-06-22T03:23:33;9.55;;;6.30;;
14019;SDS011;7085;51.428;6.796;2023-06-22T03:26:01;6.95;;;6.25;;
14019;SDS011;7085;51.428;6.796;2023-06-22T03:28:29;8.82;;;5.65;;
14019;SDS011;7085;51.428;6.796;2023-06-22T03:30:56;8.45;;;6.20;;
14019;SDS011;7085;51.428;6.796;2023-06-22T03:33:23;6.95;;;5.88;;
14019;SDS011;7085;51.428;6.796;2023-06-22T03:35:52;10.05;;;6.63;;
14019;SDS011;7085;51.428;6.796;2023-06-22T03:38:19;5.97;;;5.38;;
14019;SDS011;7085;51.428;6.796;2023-06-22T03:40:47;9.18;;;6.28;;
14019;SDS011;7085;51.428;6.796;2023-06-22T03:43:14;6.75;;;5.70;;
14019;SDS011;7085;51.428;6.796;2023-06-22T03:45:41;5.90;;;5.30;;
14019;SDS011;7085;51.428;6.796;2023-06-22T03:48:10;5.88;;;5.28;;
14019;SDS011;7085;51.428;6.796;2023-06-22T03:50:37;8.30;;;5.75;;
14019;SDS011;7085;51.428;6.796;2023-06-22T03:53:05;8.32;;;5.88;;
14019;SDS011;7085;51.428;6.796;2023-06-22T03:55:33;6.20;;;5.57;;
14019;SDS011;7085;51.428;6.796;2023-06-22T03:58:01;8.98;;;6.30;;
14019;SDS011;7085;51.428;6.796;2023-06-22T04:00:30;9.38;;;6.10;;
14019;SDS011;7085;51.428;6.796;2023-06-22T04:02:57;8.48;;;5.40;;
14019;SDS011;7085;51.428;6.796;2023-06-22T04:05:24;10.32;;;6.30;;
14019;SDS011;7085;51.428;6.796;2023-06-22T04:07:51;8.48;;;5.95;;
14019;SDS011;7085;51.428;6.796;2023-06-22T04:10:20;7.90;;;6.30;;
14019;SDS011;7085;51.428;6.796;2023-06-22T04:12:47;7.60;;;6.53;;
14019;SDS011;7085;51.428;6.796;2023-06-22T04:15:14;7.65;;;6.28;;
14019;SDS011;7085;51.428;6.796;2023-06-22T04:17:41;8.23;;;6.68;;
14019;SDS011;7085;51.428;6.796;2023-06-22T04:20:08;7.88;;;6.32;;
14019;SDS011;7085;51.428;6.796;2023-06-22T04:22:35;7.82;;;6.25;;
14019;SDS011;7085;51.428;6.796;2023-06-22T04:25:02;8.52;;;6.22;;
14019;SDS011;7085;51.428;6.796;2023-06-22T04:27:32;7.63;;;6.68;;
14019;SDS011;7085;51.428;6.796;2023-06-22T04:30:02;8.23;;;6.88;;
14019;SDS011;7085;51.428;6.796;2023-06-22T04:32:29;8.80;;;6.88;;
14019;SDS011;7085;51.428;6.796;2023-06-22T04:34:56;11.40;;;7.53;;
14019;SDS011;7085;51.428;6.796;2023-06-22T04:37:25;9.65;;;6.95;;
14019;SDS011;7085;51.428;6.796;2023-06-22T04:39:52;7.80;;;6.82;;
14019;SDS011;7085;51.428;6.796;2023-06-22T04:42:19;9.57;;;7.03;;
14019;SDS011;7085;51.428;6.796;2023-06-22T04:44:48;9.85;;;7.60;;
14019;SDS011;7085;51.428;6.796;2023-06-22T04:47:15;9.38;;;7.70;;
14019;SDS011;7085;51.428;6.796;2023-06-22T04:49:42;8.93;;;7.70;;
14019;SDS011;7085;51.428;6.796;2023-06-22T04:52:10;9.10;;;7.78;;
14019;SDS011;7085;51.428;6.796;2023-06-22T04:54:37;9.90;;;7.47;;
14019;SDS011;7085;51.428;6.796;2023-06-22T04:57:07;9.82;;;7.75;;
14019;SDS011;7085;51.428;6.796;2023-06-22T04:59:35;8.07;;;7.07;;
14019;SDS011;7085;51.428;6.796;2023-06-22T05:02:05;7.97;;;7.18;;
14019;SDS011;7085;51.428;6.796;2023-06-22T05:04:32;9.23;;;7.40;;
14019;SDS011;7085;51.428;6.796;2023-06-22T05:07:00;8.65;;;7.70;;
14019;SDS011;7085;51.428;6.796;2023-06-22T05:09:28;9.25;;;7.72;;
14019;SDS011;7085;51.428;6.796;2023-06-22T05:11:55;8.90;;;8.00;;
14019;SDS011;7085;51.428;6.796;2023-06-22T05:14:22;10.25;;;6.65;;
14019;SDS011;7085;51.428;6.796;2023-06-22T05:16:49;8.38;;;7.10;;
14019;SDS011;7085;51.428;6.796;2023-06-22T05:19:18;11.07;;;7.35;;
14019;SDS011;7085;51.428;6.796;2023-06-22T05:21:45;8.70;;;7.57;;
14019;SDS011;7085;51.428;6.796;2023-06-22T05:24:12;9.70;;;8.10;;
14019;SDS011;7085;51.428;6.796;2023-06-22T05:26:39;9.95;;;7.57;;
14019;SDS011;7085;51.428;6.796;2023-06-22T05:29:06;10.38;;;7.90;;
14019;SDS011;7085;51.428;6.796;2023-06-22T05:31:33;9.43;;;7.65;;
14019;SDS011;7085;51.428;6.796;2023-06-22T05:34:00;8.13;;;7.03;;
14019;SDS011;7085;51.428;6.796;2023-06-22T05:36:29;8.60;;;7.70;;
14019;SDS011;7085;51.428;6.796;2023-06-22T05:38:56;9.07;;;7.45;;
14019;SDS011;7085;51.428;6.796;2023-06-22T05:41:23;10.10;;;7.38;;
14019;SDS011;7085;51.428;6.796;2023-06-22T05:43:50;9.02;;;8.05;;
14019;SDS011;7085;51.428;6.796;2023-06-22T05:46:18;9.45;;;8.25;;
14019;SDS011;7085;51.428;6.796;2023-06-22T05:48:45;8.35;;;7.15;;
14019;SDS011;7085;51.428;6.796;2023-06-22T05:51:12;9.43;;;7.50;;
14019;SDS011;7085;51.428;6.796;2023-06-22T05:53:41;9.45;;;7.18;;
14019;SDS011;7085;51.428;6.796;2023-06-22T05:56:09;9.90;;;8.60;;
14019;SDS011;7085;51.428;6.796;2023-06-22T05:58:36;9.00;;;8.02;;
14019;SDS011;7085;51.428;6.796;2023-06-22T06:01:03;9.20;;;8.13;;
14019;SDS011;7085;51.428;6.796;2023-06-22T06:03:30;9.80;;;8.02;;
14019;SDS011;7085;51.428;6.796;2023-06-22T06:05:57;10.02;;;8.60;;
14019;SDS011;7085;51.428;6.796;2023-06-22T06:08:24;11.25;;;8.60;;
14019;SDS011;7085;51.428;6.796;2023-06-22T06:10:53;12.88;;;8.63;;
14019;SDS011;7085;51.428;6.796;2023-06-22T06:13:21;10.50;;;8.68;;
14019;SDS011;7085;51.428;6.796;2023-06-22T06:15:48;12.70;;;8.77;;
14019;SDS011;7085;51.428;6.796;2023-06-22T06:18:20;10.90;;;8.20;;
14019;SDS011;7085;51.428;6.796;2023-06-22T06:20:47;11.45;;;9.68;;
14019;SDS011;7085;51.428;6.796;2023-06-22T06:23:14;9.57;;;8.57;;
14019;SDS011;7085;51.428;6.796;2023-06-22T06:25:41;10.32;;;8.88;;
14019;SDS011;7085;51.428;6.796;2023-06-22T06:28:09;11.38;;;10.15;;
14019;SDS011;7085;51.428;6.796;2023-06-22T06:30:37;12.73;;;9.88;;
14019;SDS011;7085;51.428;6.796;2023-06-22T06:33:04;17.38;;;10.02;;
14019;SDS011;7085;51.428;6.796;2023-06-22T06:35:33;12.88;;;9.48;;
14019;SDS011;7085;51.428;6.796;2023-06-22T06:38:01;13.88;;;10.32;;
14019;SDS011;7085;51.428;6.796;2023-06-22T06:40:28;14.45;;;10.52;;
14019;SDS011;7085;51.428;6.796;2023-06-22T06:42:55;11.82;;;9.98;;
14019;SDS011;7085;51.428;6.796;2023-06-22T06:45:25;13.70;;;10.07;;
14019;SDS011;7085;51.428;6.796;2023-06-22T06:47:53;11.00;;;9.77;;
14019;SDS011;7085;51.428;6.796;2023-06-22T06:50:20;13.13;;;10.93;;
14019;SDS011;7085;51.428;6.796;2023-06-22T06:52:48;14.60;;;10.52;;
14019;SDS011;7085;51.428;6.796;2023-06-22T06:55:16;13.75;;;11.80;;
14019;SDS011;7085;51.428;6.796;2023-06-22T06:57:44;14.63;;;10.25;;
14019;SDS011;7085;51.428;6.796;2023-06-22T07:00:13;13.98;;;12.38;;
14019;SDS011;7085;51.428;6.796;2023-06-22T07:02:42;14.52;;;11.23;;
14019;SDS011;7085;51.428;6.796;2023-06-22T07:05:10;16.08;;;11.93;;
14019;SDS011;7085;51.428;6.796;2023-06-22T07:07:38;13.80;;;10.65;;
14019;SDS011;7085;51.428;6.796;2023-06-22T07:10:06;14.40;;;10.95;;
14019;SDS011;7085;51.428;6.796;2023-06-22T07:12:34;11.93;;;10.73;;
14019;SDS011;7085;51.428;6.796;2023-06-22T07:15:02;15.52;;;12.20;;
14019;SDS011;7085;51.428;6.796;2023-06-22T07:17:29;13.73;;;10.77;;
14019;SDS011;7085;51.428;6.796;2023-06-22T07:19:57;14.32;;;11.40;;
14019;SDS011;7085;51.428;6.796;2023-06-22T07:22:24;13.05;;;10.60;;
14019;SDS011;7085;51.428;6.796;2023-06-22T07:24:51;12.50;;;10.90;;
14019;SDS011;7085;51.428;6.796;2023-06-22T07:27:19;14.35;;;10.52;;
14019;SDS011;7085;51.428;6.796;2023-06-22T07:29:46;11.98;;;10.68;;
14019;SDS011;7085;51.428;6.796;2023-06-22T07:32:13;15.38;;;11.63;;
14019;SDS011;7085;51.428;6.796;2023-06-22T07:34:40;14.63;;;11.25;;
14019;SDS011;7085;51.428;6.796;2023-06-22T07:37:09;13.05;;;11.73;;
14019;SDS011;7085;51.428;6.796;2023-06-22T07:39:36;12.30;;;11.02;;
14019;SDS011;7085;51.428;6.796;2023-06-22T07:42:04;20.42;;;11.57;;
14019;SDS011;7085;51.428;6.796;2023-06-22T07:44:31;17.85;;;12.23;;
14019;SDS011;7085;51.428;6.796;2023-06-22T07:46:58;15.18;;;11.20;;
14019;SDS011;7085;51.428;6.796;2023-06-22T07:49:25;13.60;;;12.02;;
14019;SDS011;7085;51.428;6.796;2023-06-22T07:51:52;16.63;;;11.88;;
14019;SDS011;7085;51.428;6.796;2023-06-22T07:54:20;15.65;;;13.15;;
14019;SDS011;7085;51.428;6.796;2023-06-22T07:56:48;14.82;;;11.75;;
14019;SDS011;7085;51.428;6.796;2023-06-22T07:59:15;12.50;;;11.27;;
14019;SDS011;7085;51.428;6.796;2023-06-22T08:01:42;15.27;;;11.18;;
14019;SDS011;7085;51.428;6.796;2023-06-22T08:04:09;14.63;;;12.57;;
14019;SDS011;7085;51.428;6.796;2023-06-22T08:06:36;16.38;;;12.98;;
14019;SDS011;7085;51.428;6.796;2023-06-22T08:09:03;13.10;;;11.80;;
14019;SDS011;7085;51.428;6.796;2023-06-22T08:11:32;15.50;;;11.63;;
14019;SDS011;7085;51.428;6.796;2023-06-22T08:13:59;14.27;;;12.73;;
14019;SDS011;7085;51.428;6.796;2023-06-22T08:16:26;13.75;;;12.38;;
14019;SDS011;7085;51.428;6.796;2023-06-22T08:18:53;16.13;;;12.02;;
14019;SDS011;7085;51.428;6.796;2023-06-22T08:21:20;15.82;;;12.48;;
14019;SDS011;7085;51.428;6.796;2023-06-22T08:23:47;15.23;;;11.43;;
14019;SDS011;7085;51.428;6.796;2023-06-22T08:26:14;12.90;;;11.48;;
14019;SDS011;7085;51.428;6.796;2023-06-22T08:28:43;14.35;;;11.93;;
14019;SDS011;7085;51.428;6.796;2023-06-22T08:31:10;15.45;;;11.48;;
14019;SDS011;7085;51.428;6.796;2023-06-22T08:33:39;14.45;;;11.70;;
14019;SDS011;7085;51.428;6.796;2023-06-22T08:36:06;15.50;;;11.75;;
14019;SDS011;7085;51.428;6.796;2023-06-22T08:38:36;13.70;;;12.25;;
14019;SDS011;7085;51.428;6.796;2023-06-22T08:41:03;12.70;;;10.98;;
14019;SDS011;7085;51.428;6.796;2023-06-22T08:43:30;13.70;;;12.30;;
14019;SDS011;7085;51.428;6.796;2023-06-22T08:45:58;16.33;;;11.13;;
14019;SDS011;7085;51.428;6.796;2023-06-22T08:48:27;13.80;;;12.23;;
14019;SDS011;7085;51.428;6.796;2023-06-22T08:50:54;22.60;;;12.52;;
14019;SDS011;7085;51.428;6.796;2023-06-22T08:53:21;15.02;;;12.55;;
14019;SDS011;7085;51.428;6.796;2023-06-22T08:55:48;15.23;;;11.98;;
14019;SDS011;7085;51.428;6.796;2023-06-22T08:58:16;14.75;;;12.80;;
14019;SDS011;7085;51.428;6.796;2023-06-22T09:02:59;14.00;;;12.43;;
14019;SDS011;7085;51.428;6.796;2023-06-22T09:05:26;13.00;;;11.50;;
14019;SDS011;7085;51.428;6.796;2023-06-22T09:07:55;14.75;;;12.75;;
14019;SDS011;7085;51.428;6.796;2023-06-22T09:10:23;15.48;;;11.45;;
14019;SDS011;7085;51.428;6.796;2023-06-22T09:12:50;17.70;;;12.55;;
14019;SDS011;7085;51.428;6.796;2023-06-22T09:15:17;19.75;;;11.27;;
14019;SDS011;7085;51.428;6.796;2023-06-22T09:17:47;15.95;;;12.70;;
14019;SDS011;7085;51.428;6.796;2023-06-22T09:20:16;16.40;;;11.45;;
14019;SDS011;7085;51.428;6.796;2023-06-22T09:22:43;12.43;;;11.07;;
14019;SDS011;7085;51.428;6.796;2023-06-22T09:25:10;17.05;;;12.32;;
14019;SDS011;7085;51.428;6.796;2023-06-22T09:27:37;14.63;;;11.18;;
14019;SDS011;7085;51.428;6.796;2023-06-22T09:30:05;15.70;;;11.60;;
14019;SDS011;7085;51.428;6.796;2023-06-22T09:32:32;15.00;;;11.90;;
14019;SDS011;7085;51.428;6.796;2023-06-22T09:35:02;12.13;;;10.88;;
14019;SDS011;7085;51.428;6.796;2023-06-22T09:37:32;13.50;;;10.68;;
14019;SDS011;7085;51.428;6.796;2023-06-22T09:39:59;15.90;;;10.25;;
14019;SDS011;7085;51.428;6.796;2023-06-22T09:42:26;14.32;;;10.88;;
14019;SDS011;7085;51.428;6.796;2023-06-22T09:44:53;11.23;;;10.13;;
14019;SDS011;7085;51.428;6.796;2023-06-22T09:47:21;10.95;;;9.80;;
14019;SDS011;7085;51.428;6.796;2023-06-22T09:49:48;13.38;;;11.43;;
14019;SDS011;7085;51.428;6.796;2023-06-22T09:52:15;13.20;;;10.05;;
14019;SDS011;7085;51.428;6.796;2023-06-22T09:54:44;15.43;;;11.60;;
14019;SDS011;7085;51.428;6.796;2023-06-22T09:57:11;13.20;;;10.15;;
14019;SDS011;7085;51.428;6.796;2023-06-22T09:59:38;12.10;;;10.35;;
14019;SDS011;7085;51.428;6.796;2023-06-22T10:02:06;12.77;;;9.77;;
14019;SDS011;7085;51.428;6.796;2023-06-22T10:04:33;11.77;;;9.82;;
14019;SDS011;7085;51.428;6.796;2023-06-22T10:07:01;11.60;;;10.45;;
14019;SDS011;7085;51.428;6.796;2023-06-22T10:09:30;12.70;;;9.20;;
14019;SDS011;7085;51.428;6.796;2023-06-22T10:11:58;9.60;;;8.68;;
14019;SDS011;7085;51.428;6.796;2023-06-22T10:14:25;11.65;;;9.43;;
14019;SDS011;7085;51.428;6.796;2023-06-22T10:16:54;13.15;;;10.23;;
14019;SDS011;7085;51.428;6.796;2023-06-22T10:19:21;11.55;;;8.77;;
14019;SDS011;7085;51.428;6.796;2023-06-22T10:21:48;10.55;;;9.23;;
14019;SDS011;7085;51.428;6.796;2023-06-22T10:24:15;12.43;;;8.93;;
14019;SDS011;7085;51.428;6.796;2023-06-22T10:26:42;9.75;;;8.75;;
14019;SDS011;7085;51.428;6.796;2023-06-22T10:29:11;11.35;;;8.25;;
14019;SDS011;7085;51.428;6.796;2023-06-22T10:31:38;16.20;;;9.25;;
14019;SDS011;7085;51.428;6.796;2023-06-22T10:34:05;10.45;;;9.45;;
14019;SDS011;7085;51.428;6.796;2023-06-22T10:36:32;12.82;;;8.80;;
14019;SDS011;7085;51.428;6.796;2023-06-22T10:38:59;9.57;;;8.50;;
14019;SDS011;7085;51.428;6.796;2023-06-22T10:41:27;9.00;;;8.02;;
14019;SDS011;7085;51.428;6.796;2023-06-22T10:43:55;9.95;;;8.95;;
14019;SDS011;7085;51.428;6.796;2023-06-22T10:46:25;12.48;;;9.65;;
14019;SDS011;7085;51.428;6.796;2023-06-22T10:48:52;10.95;;;9.27;;
14019;SDS011;7085;51.428;6.796;2023-06-22T10:51:22;9.77;;;8.68;;
14019;SDS011;7085;51.428;6.796;2023-06-22T10:53:49;10.77;;;9.32;;
14019;SDS011;7085;51.428;6.796;2023-06-22T10:56:16;11.48;;;8.60;;
14019;SDS011;7085;51.428;6.796;2023-06-22T10:58:44;10.00;;;9.00;;
14019;SDS011;7085;51.428;6.796;2023-06-22T11:01:11;9.85;;;8.82;;
14019;SDS011;7085;51.428;6.796;2023-06-22T11:03:40;10.63;;;9.13;;
14019;SDS011;7085;51.428;6.796;2023-06-22T11:06:07;12.55;;;8.95;;
14019;SDS011;7085;51.428;6.796;2023-06-22T11:08:34;10.30;;;8.90;;
14019;SDS011;7085;51.428;6.796;2023-06-22T11:11:01;11.18;;;8.82;;
14019;SDS011;7085;51.428;6.796;2023-06-22T11:13:28;10.65;;;8.60;;
14019;SDS011;7085;51.428;6.796;2023-06-22T11:15:55;11.15;;;9.90;;
14019;SDS011;7085;51.428;6.796;2023-06-22T11:18:22;9.27;;;8.38;;
14019;SDS011;7085;51.428;6.796;2023-06-22T11:20:51;10.43;;;9.10;;
14019;SDS011;7085;51.428;6.796;2023-06-22T11:23:18;10.00;;;9.07;;
14019;SDS011;7085;51.428;6.796;2023-06-22T11:25:45;11.68;;;8.77;;
14019;SDS011;7085;51.428;6.796;2023-06-22T11:28:12;11.02;;;8.95;;
14019;SDS011;7085;51.428;6.796;2023-06-22T11:30:39;9.75;;;8.80;;
14019;SDS011;7085;51.428;6.796;2023-06-22T11:33:06;11.57;;;9.73;;
14019;SDS011;7085;51.428;6.796;2023-06-22T11:35:33;11.05;;;9.70;;
14019;SDS011;7085;51.428;6.796;2023-06-22T11:38:01;12.00;;;10.52;;
14019;SDS011;7085;51.428;6.796;2023-06-22T11:40:29;13.63;;;10.23;;
14019;SDS011;7085;51.428;6.796;2023-06-22T11:42:56;11.73;;;10.23;;
14019;SDS011;7085;51.428;6.796;2023-06-22T11:45:23;12.00;;;10.23;;
14019;SDS011;7085;51.428;6.796;2023-06-22T11:47:51;14.45;;;10.52;;
14019;SDS011;7085;51.428;6.796;2023-06-22T11:50:18;15.52;;;11.55;;
14019;SDS011;7085;51.428;6.796;2023-06-22T11:52:45;13.38;;;11.93;;
14019;SDS011;7085;51.428;6.796;2023-06-22T11:55:13;14.98;;;11.43;;
14019;SDS011;7085;51.428;6.796;2023-06-22T11:57:52;14.75;;;13.13;;
14019;SDS011;7085;51.428;6.796;2023-06-22T12:00:19;17.30;;;13.48;;
14019;SDS011;7085;51.428;6.796;2023-06-22T12:02:48;18.20;;;14.02;;
14019;SDS011;7085;51.428;6.796;2023-06-22T12:05:16;17.45;;;14.50;;
14019;SDS011;7085;51.428;6.796;2023-06-22T12:07:43;19.10;;;15.10;;
14019;SDS011;7085;51.428;6.796;2023-06-22T12:10:10;18.83;;;14.85;;
14019;SDS011;7085;51.428;6.796;2023-06-22T12:12:38;18.17;;;15.02;;
14019;SDS011;7085;51.428;6.796;2023-06-22T12:15:06;18.60;;;16.23;;
14019;SDS011;7085;51.428;6.796;2023-06-22T12:17:33;23.02;;;15.63;;
14019;SDS011;7085;51.428;6.796;2023-06-22T12:20:00;20.85;;;15.90;;
14019;SDS011;7085;51.428;6.796;2023-06-22T12:22:30;18.92;;;16.27;;
14019;SDS011;7085;51.428;6.796;2023-06-22T12:24:57;20.05;;;15.43;;
14019;SDS011;7085;51.428;6.796;2023-06-22T12:27:24;25.02;;;15.38;;
14019;SDS011;7085;51.428;6.796;2023-06-22T12:29:53;21.10;;;15.13;;
14019;SDS011;7085;51.428;6.796;2023-06-22T12:32:20;20.10;;;15.60;;
14019;SDS011;7085;51.428;6.796;2023-06-22T12:34:47;16.55;;;14.77;;
14019;SDS011;7085;51.428;6.796;2023-06-22T12:37:14;16.85;;;14.02;;
14019;SDS011;7085;51.428;6.796;2023-06-22T12:39:41;17.27;;;15.02;;
14019;SDS011;7085;51.428;6.796;2023-06-22T12:42:08;16.85;;;14.68;;
14019;SDS011;7085;51.428;6.796;2023-06-22T12:44:37;18.27;;;14.35;;
14019;SDS011;7085;51.428;6.796;2023-06-22T12:47:06;16.50;;;13.93;;
14019;SDS011;7085;51.428;6.796;2023-06-22T12:49:33;16.33;;;14.38;;
14019;SDS011;7085;51.428;6.796;2023-06-22T12:52:00;20.45;;;15.05;;
14019;SDS011;7085;51.428;6.796;2023-06-22T12:54:27;18.67;;;15.00;;
14019;SDS011;7085;51.428;6.796;2023-06-22T12:56:54;19.23;;;15.48;;
14019;SDS011;7085;51.428;6.796;2023-06-22T12:59:22;16.90;;;14.68;;
14019;SDS011;7085;51.428;6.796;2023-06-22T13:01:49;17.35;;;14.68;;
14019;SDS011;7085;51.428;6.796;2023-06-22T13:04:17;22.08;;;16.80;;
14019;SDS011;7085;51.428;6.796;2023-06-22T13:06:45;17.80;;;15.90;;
14019;SDS011;7085;51.428;6.796;2023-06-22T13:09:13;17.00;;;15.20;;
14019;SDS011;7085;51.428;6.796;2023-06-22T13:11:40;17.75;;;15.75;;
14019;SDS011;7085;51.428;6.796;2023-06-22T13:14:07;21.58;;;16.67;;
14019;SDS011;7085;51.428;6.796;2023-06-22T13:16:34;18.95;;;16.55;;
14019;SDS011;7085;51.428;6.796;2023-06-22T13:19:01;20.17;;;15.77;;
14019;SDS011;7085;51.428;6.796;2023-06-22T13:21:30;19.95;;;16.30;;
14019;SDS011;7085;51.428;6.796;2023-06-22T13:23:59;19.02;;;16.85;;
14019;SDS011;7085;51.428;6.796;2023-06-22T13:26:26;18.95;;;15.63;;
14019;SDS011;7085;51.428;6.796;2023-06-22T13:28:54;21.75;;;16.20;;
14019;SDS011;7085;51.428;6.796;2023-06-22T13:31:21;21.13;;;17.20;;
14019;SDS011;7085;51.428;6.796;2023-06-22T13:33:48;20.20;;;15.88;;
14019;SDS011;7085;51.428;6.796;2023-06-22T13:36:17;17.25;;;15.45;;
14019;SDS011;7085;51.428;6.796;2023-06-22T13:38:45;19.45;;;16.48;;
14019;SDS011;7085;51.428;6.796;2023-06-22T13:41:12;17.75;;;15.88;;
14019;SDS011;7085;51.428;6.796;2023-06-22T13:43:40;20.15;;;16.42;;
14019;SDS011;7085;51.428;6.796;2023-06-22T13:46:07;20.02;;;15.63;;
14019;SDS011;7085;51.428;6.796;2023-06-22T13:48:34;18.23;;;16.30;;
14019;SDS011;7085;51.428;6.796;2023-06-22T13:51:01;19.83;;;16.95;;
14019;SDS011;7085;51.428;6.796;2023-06-22T13:53:28;19.30;;;16.13;;
14019;SDS011;7085;51.428;6.796;2023-06-22T13:55:56;20.23;;;17.27;;
14019;SDS011;7085;51.428;6.796;2023-06-22T13:58:23;19.33;;;16.75;;
14019;SDS011;7085;51.428;6.796;2023-06-22T14:00:54;19.58;;;17.48;;
14019;SDS011;7085;51.428;6.796;2023-06-22T14:03:21;19.42;;;17.42;;
14019;SDS011;7085;51.428;6.796;2023-06-22T14:05:48;20.92;;;16.58;;
14019;SDS011;7085;51.428;6.796;2023-06-22T14:08:15;19.70;;;17.65;;
14019;SDS011;7085;51.428;6.796;2023-06-22T14:10:42;17.27;;;15.38;;
14019;SDS011;7085;51.428;6.796;2023-06-22T14:13:11;18.17;;;16.15;;
14019;SDS011;7085;51.428;6.796;2023-06-22T14:15:38;19.42;;;15.52;;
14019;SDS011;7085;51.428;6.796;2023-06-22T14:18:05;17.25;;;15.07;;
14019;SDS011;7085;51.428;6.796;2023-06-22T14:20:32;16.65;;;14.73;;
14019;SDS011;7085;51.428;6.796;2023-06-22T14:22:59;18.33;;;15.32;;
14019;SDS011;7085;51.428;6.796;2023-06-22T14:25:26;17.25;;;15.18;;
14019;SDS011;7085;51.428;6.796;2023-06-22T14:27:53;19.58;;;17.48;;
14019;SDS011;7085;51.428;6.796;2023-06-22T14:30:21;19.77;;;15.43;;
14019;SDS011;7085;51.428;6.796;2023-06-22T14:32:48;20.13;;;15.68;;
14019;SDS011;7085;51.428;6.796;2023-06-22T14:35:15;19.60;;;17.08;;
14019;SDS011;7085;51.428;6.796;2023-06-22T14:37:42;17.13;;;15.43;;
14019;SDS011;7085;51.428;6.796;2023-06-22T14:40:10;22.08;;;15.95;;
14019;SDS011;7085;51.428;6.796;2023-06-22T14:42:37;19.83;;;15.23;;
14019;SDS011;7085;51.428;6.796;2023-06-22T14:45:05;17.45;;;15.68;;
14019;SDS011;7085;51.428;6.796;2023-06-22T14:47:33;18.20;;;15.70;;
14019;SDS011;7085;51.428;6.796;2023-06-22T14:50:00;19.10;;;15.45;;
14019;SDS011;7085;51.428;6.796;2023-06-22T14:52:27;17.20;;;14.75;;
14019;SDS011;7085;51.428;6.796;2023-06-22T14:54:55;19.48;;;15.73;;
14019;SDS011;7085;51.428;6.796;2023-06-22T14:57:22;17.95;;;14.98;;
14019;SDS011;7085;51.428;6.796;2023-06-22T14:59:49;17.35;;;14.85;;
14019;SDS011;7085;51.428;6.796;2023-06-22T15:02:16;19.80;;;16.25;;
14019;SDS011;7085;51.428;6.796;2023-06-22T15:04:45;18.63;;;15.20;;
14019;SDS011;7085;51.428;6.796;2023-06-22T15:07:12;17.45;;;14.93;;
14019;SDS011;7085;51.428;6.796;2023-06-22T15:09:39;19.30;;;16.20;;
14019;SDS011;7085;51.428;6.796;2023-06-22T15:12:07;20.08;;;15.68;;
14019;SDS011;7085;51.428;6.796;2023-06-22T15:14:37;20.13;;;16.00;;
14019;SDS011;7085;51.428;6.796;2023-06-22T15:17:04;18.85;;;16.67;;
14019;SDS011;7085;51.428;6.796;2023-06-22T15:19:31;19.70;;;17.42;;
14019;SDS011;7085;51.428;6.796;2023-06-22T15:21:59;18.50;;;16.08;;
14019;SDS011;7085;51.428;6.796;2023-06-22T15:24:29;21.42;;;16.35;;
14019;SDS011;7085;51.428;6.796;2023-06-22T15:26:56;24.65;;;17.27;;
14019;SDS011;7085;51.428;6.796;2023-06-22T15:29:23;21.15;;;16.67;;
14019;SDS011;7085;51.428;6.796;2023-06-22T15:31:50;20.35;;;16.00;;
14019;SDS011;7085;51.428;6.796;2023-06-22T15:34:18;19.63;;;16.50;;
14019;SDS011;7085;51.428;6.796;2023-06-22T15:36:45;18.70;;;16.70;;
14019;SDS011;7085;51.428;6.796;2023-06-22T15:39:13;16.90;;;15.15;;
14019;SDS011;7085;51.428;6.796;2023-06-22T15:41:41;19.67;;;16.80;;
14019;SDS011;7085;51.428;6.796;2023-06-22T15:44:08;20.88;;;16.27;;
14019;SDS011;7085;51.428;6.796;2023-06-22T15:46:35;17.67;;;15.63;;
14019;SDS011;7085;51.428;6.796;2023-06-22T15:49:02;17.17;;;15.23;;
14019;SDS011;7085;51.428;6.796;2023-06-22T15:51:30;16.80;;;15.02;;
14019;SDS011;7085;51.428;6.796;2023-06-22T15:53:57;23.00;;;16.25;;
14019;SDS011;7085;51.428;6.796;2023-06-22T15:56:26;20.27;;;15.40;;
14019;SDS011;7085;51.428;6.796;2023-06-22T15:58:53;16.67;;;14.55;;
14019;SDS011;7085;51.428;6.796;2023-06-22T16:01:21;16.10;;;14.00;;
14019;SDS011;7085;51.428;6.796;2023-06-22T16:03:49;15.18;;;13.43;;
14019;SDS011;7085;51.428;6.796;2023-06-22T16:06:16;12.63;;;11.32;;
14019;SDS011;7085;51.428;6.796;2023-06-22T16:08:43;13.43;;;12.02;;
14019;SDS011;7085;51.428;6.796;2023-06-22T16:11:10;14.90;;;11.27;;
14019;SDS011;7085;51.428;6.796;2023-06-22T16:13:38;12.40;;;11.10;;
14019;SDS011;7085;51.428;6.796;2023-06-22T16:16:05;14.88;;;12.70;;
14019;SDS011;7085;51.428;6.796;2023-06-22T16:18:32;16.27;;;12.20;;
14019;SDS011;7085;51.428;6.796;2023-06-22T16:20:59;13.35;;;10.98;;
14019;SDS011;7085;51.428;6.796;2023-06-22T16:23:27;15.15;;;12.32;;
14019;SDS011;7085;51.428;6.796;2023-06-22T16:25:54;18.67;;;13.32;;
14019;SDS011;7085;51.428;6.796;2023-06-22T16:28:21;14.10;;;12.60;;
14019;SDS011;7085;51.428;6.796;2023-06-22T16:30:49;20.38;;;12.75;;
14019;SDS011;7085;51.428;6.796;2023-06-22T16:33:16;16.88;;;12.30;;
14019;SDS011;7085;51.428;6.796;2023-06-22T16:35:43;14.20;;;12.68;;
14019;SDS011;7085;51.428;6.796;2023-06-22T16:38:10;16.52;;;12.38;;
14019;SDS011;7085;51.428;6.796;2023-06-22T16:40:37;17.17;;;13.27;;
14019;SDS011;7085;51.428;6.796;2023-06-22T16:43:04;17.38;;;14.15;;
14019;SDS011;7085;51.428;6.796;2023-06-22T16:45:31;13.63;;;11.85;;
14019;SDS011;7085;51.428;6.796;2023-06-22T16:48:00;14.05;;;12.10;;
14019;SDS011;7085;51.428;6.796;2023-06-22T16:50:27;16.52;;;13.05;;
14019;SDS011;7085;51.428;6.796;2023-06-22T16:52:55;13.85;;;11.48;;
14019;SDS011;7085;51.428;6.796;2023-06-22T16:55:22;12.25;;;9.90;;
14019;SDS011;7085;51.428;6.796;2023-06-22T16:57:49;13.52;;;11.30;;
14019;SDS011;7085;51.428;6.796;2023-06-22T17:00:17;12.13;;;10.23;;
14019;SDS011;7085;51.428;6.796;2023-06-22T17:02:45;16.65;;;10.90;;
14019;SDS011;7085;51.428;6.796;2023-06-22T17:05:15;11.63;;;9.10;;
14019;SDS011;7085;51.428;6.796;2023-06-22T17:07:42;12.48;;;9.57;;
14019;SDS011;7085;51.428;6.796;2023-06-22T17:10:13;13.07;;;8.80;;
14019;SDS011;7085;51.428;6.796;2023-06-22T17:12:40;11.68;;;9.40;;
14019;SDS011;7085;51.428;6.796;2023-06-22T17:15:08;12.07;;;9.57;;
14019;SDS011;7085;51.428;6.796;2023-06-22T17:17:36;14.45;;;10.45;;
14019;SDS011;7085;51.428;6.796;2023-06-22T17:20:05;13.65;;;9.57;;
14019;SDS011;7085;51.428;6.796;2023-06-22T17:22:33;15.45;;;10.77;;
14019;SDS011;7085;51.428;6.796;2023-06-22T17:25:03;13.40;;;10.88;;
14019;SDS011;7085;51.428;6.796;2023-06-22T17:27:30;14.90;;;11.65;;
14019;SDS011;7085;51.428;6.796;2023-06-22T17:30:03;16.13;;;12.18;;
14019;SDS011;7085;51.428;6.796;2023-06-22T17:32:30;14.43;;;12.57;;
14019;SDS011;7085;51.428;6.796;2023-06-22T17:34:57;16.80;;;14.88;;
14019;SDS011;7085;51.428;6.796;2023-06-22T17:37:24;19.30;;;16.50;;
14019;SDS011;7085;51.428;6.796;2023-06-22T17:39:54;24.60;;;16.40;;
14019;SDS011;7085;51.428;6.796;2023-06-22T17:42:21;22.85;;;16.60;;
14019;SDS011;7085;51.428;6.796;2023-06-22T17:44:49;22.25;;;17.40;;
14019;SDS011;7085;51.428;6.796;2023-06-22T17:47:22;21.45;;;16.30;;